Time;durP1;ratioP1;P1;durP2;ratioP2;P2;SDS_P1;SDS_P2;PMS_P1;PMS_P2;Temp;Humidity;BMP_temperature;BMP_pressure;BME280_temperature;BME280_humidity;BME280_pressure;Samples;Min_cycle;Max_cycle;Signal;HPM_P1;HPM_P2
2020/02/04 00:00:40;;;;;;;14.2;3.35;;;;;;;8.44;100;94226.98;;;;
2020/02/04 00:01:41;;;;;;;14.2;3.35;;;;;;;8.44;100;94226.98;;;;
2020/02/04 00:02:45;;;;;;;14.2;3.35;;;;;;;8.44;100;94226.98;;;;
2020/02/04 00:03:46;;;;;;;14.2;3.35;;;;;;;8.44;100;94226.98;;;;
2020/02/04 00:04:46;;;;;;;14.2;3.35;;;;;;;8.44;100;94226.98;;;;
2020/02/04 00:05:49;;;;;;;11.65;3.2;;;;;;;8.88;100;94185.58;;;;
2020/02/04 00:06:50;;;;;;;11.65;3.2;;;;;;;8.88;100;94185.58;;;;
2020/02/04 00:07:51;;;;;;;11.65;3.2;;;;;;;8.88;100;94185.58;;;;
2020/02/04 00:08:52;;;;;;;11.65;3.2;;;;;;;8.88;100;94185.58;;;;
2020/02/04 00:09:52;;;;;;;11.65;3.2;;;;;;;8.88;100;94185.58;;;;
2020/02/04 00:11:00;;;;;;;11.65;3.2;;;;;;;8.88;100;94185.58;;;;
2020/02/04 00:12:30;;;;;;;11.65;3.2;;;;;;;8.88;100;94185.58;;;;
2020/02/04 00:13:31;;;;;;;11.65;3.2;;;;;;;8.88;100;94185.58;;;;
2020/02/04 00:14:36;;;;;;;11.65;3.2;;;;;;;8.88;100;94185.58;;;;
2020/02/04 00:15:36;;;;;;;11.65;3.2;;;;;;;8.88;100;94185.58;;;;
2020/02/04 00:17:41;;;;;;;15;4;;;;;;;9.12;100;94139.36;;;;
2020/02/04 00:18:42;;;;;;;15;4;;;;;;;9.12;100;94139.36;;;;
2020/02/04 00:19:42;;;;;;;15;4;;;;;;;9.12;100;94139.36;;;;
2020/02/04 00:20:44;;;;;;;15;4;;;;;;;9.12;100;94139.36;;;;
2020/02/04 00:21:45;;;;;;;15;4;;;;;;;9.12;100;94139.36;;;;
2020/02/04 00:22:45;;;;;;;15;4;;;;;;;9.12;100;94139.36;;;;
2020/02/04 00:23:46;;;;;;;15;4;;;;;;;9.12;100;94139.36;;;;
2020/02/04 00:24:46;;;;;;;15;4;;;;;;;9.12;100;94139.36;;;;
2020/02/04 00:25:48;;;;;;;15;4;;;;;;;9.12;100;94139.36;;;;
2020/02/04 00:26:48;;;;;;;13;3.4;;;;;;;9.45;100;94090.77;;;;
2020/02/04 00:27:49;;;;;;;13;3.4;;;;;;;9.45;100;94090.77;;;;
2020/02/04 00:28:53;;;;;;;13;3.4;;;;;;;9.45;100;94090.77;;;;
2020/02/04 00:29:54;;;;;;;13;3.4;;;;;;;9.45;100;94090.77;;;;
2020/02/04 00:30:54;;;;;;;13;3.4;;;;;;;9.45;100;94090.77;;;;
2020/02/04 00:31:55;;;;;;;13;3.4;;;;;;;9.45;100;94090.77;;;;
2020/02/04 00:32:56;;;;;;;13;3.4;;;;;;;9.45;100;94090.77;;;;
2020/02/04 00:33:56;;;;;;;13;3.4;;;;;;;9.45;100;94090.77;;;;
2020/02/04 00:34:57;;;;;;;13;3.4;;;;;;;9.45;100;94090.77;;;;
2020/02/04 00:35:58;;;;;;;13;3.4;;;;;;;9.45;100;94090.77;;;;
2020/02/04 00:36:58;;;;;;;13;3.4;;;;;;;9.45;100;94090.77;;;;
2020/02/04 00:38:03;;;;;;;14.95;3.35;;;;;;;9.64;100;94042.94;;;;
2020/02/04 00:39:04;;;;;;;14.95;3.35;;;;;;;9.64;100;94042.94;;;;
2020/02/04 00:40:12;;;;;;;14.95;3.35;;;;;;;9.64;100;94042.94;;;;
2020/02/04 00:41:24;;;;;;;14.95;3.35;;;;;;;9.64;100;94042.94;;;;
2020/02/04 00:42:25;;;;;;;14.95;3.35;;;;;;;9.64;100;94042.94;;;;
2020/02/04 00:43:28;;;;;;;14.95;3.35;;;;;;;9.64;100;94042.94;;;;
2020/02/04 00:44:28;;;;;;;14.95;3.35;;;;;;;9.64;100;94042.94;;;;
2020/02/04 00:45:29;;;;;;;14.95;3.35;;;;;;;9.64;100;94042.94;;;;
2020/02/04 00:46:29;;;;;;;14.95;3.35;;;;;;;9.64;100;94042.94;;;;
2020/02/04 00:47:29;;;;;;;14.95;3.35;;;;;;;9.64;100;94042.94;;;;
2020/02/04 00:48:30;;;;;;;13.1;3.699999;;;;;;;9.97;100;93991.36;;;;
2020/02/04 00:49:31;;;;;;;13.1;3.699999;;;;;;;9.97;100;93991.36;;;;
2020/02/04 00:50:31;;;;;;;13.1;3.699999;;;;;;;9.97;100;93991.36;;;;
2020/02/04 00:51:32;;;;;;;13.1;3.699999;;;;;;;9.97;100;93991.36;;;;
2020/02/04 00:52:32;;;;;;;13.1;3.699999;;;;;;;9.97;100;93991.36;;;;
2020/02/04 00:53:33;;;;;;;13.1;3.699999;;;;;;;9.97;100;93991.36;;;;
2020/02/04 00:54:33;;;;;;;13.1;3.699999;;;;;;;9.97;100;93991.36;;;;
2020/02/04 00:55:34;;;;;;;13.1;3.699999;;;;;;;9.97;100;93991.36;;;;
2020/02/04 00:56:34;;;;;;;13.1;3.699999;;;;;;;9.97;100;93991.36;;;;
2020/02/04 00:57:35;;;;;;;13.1;3.699999;;;;;;;9.97;100;93991.36;;;;
2020/02/04 00:58:35;;;;;;;13.1;4.2;;;;;;;10.26;100;93949.02;;;;
2020/02/04 00:59:36;;;;;;;13.1;4.2;;;;;;;10.26;100;93949.02;;;;
2020/02/04 01:00:36;;;;;;;13.1;4.2;;;;;;;10.26;100;93949.02;;;;
2020/02/04 01:01:36;;;;;;;13.1;4.2;;;;;;;10.26;100;93949.02;;;;
2020/02/04 01:02:53;;;;;;;13.1;4.2;;;;;;;10.26;100;93949.02;;;;
2020/02/04 01:03:54;;;;;;;13.1;4.2;;;;;;;10.26;100;93949.02;;;;
2020/02/04 01:04:54;;;;;;;13.1;4.2;;;;;;;10.26;100;93949.02;;;;
2020/02/04 01:05:55;;;;;;;13.1;4.2;;;;;;;10.26;100;93949.02;;;;
2020/02/04 01:06:55;;;;;;;13.1;4.2;;;;;;;10.26;100;93949.02;;;;
2020/02/04 01:07:56;;;;;;;13.1;4.2;;;;;;;10.26;100;93949.02;;;;
2020/02/04 01:08:57;;;;;;;13.1;4.2;;;;;;;10.26;100;93949.02;;;;
2020/02/04 01:09:57;;;;;;;13.75;3.5;;;;;;;10.62;100;93908.57;;;;
2020/02/04 01:10:57;;;;;;;13.75;3.5;;;;;;;10.62;100;93908.57;;;;
2020/02/04 01:11:58;;;;;;;13.75;3.5;;;;;;;10.62;100;93908.57;;;;
2020/02/04 01:12:58;;;;;;;13.75;3.5;;;;;;;10.62;100;93908.57;;;;
2020/02/04 01:14:00;;;;;;;13.75;3.5;;;;;;;10.62;100;93908.57;;;;
2020/02/04 01:15:00;;;;;;;13.75;3.5;;;;;;;10.62;100;93908.57;;;;
2020/02/04 01:16:00;;;;;;;13.75;3.5;;;;;;;10.62;100;93908.57;;;;
2020/02/04 01:17:01;;;;;;;13.75;3.5;;;;;;;10.62;100;93908.57;;;;
2020/02/04 01:18:01;;;;;;;13.75;3.5;;;;;;;10.62;100;93908.57;;;;
2020/02/04 01:19:02;;;;;;;13.75;3.5;;;;;;;10.62;100;93908.57;;;;
2020/02/04 01:20:04;;;;;;;12.65;3.45;;;;;;;10.77;100;93870.79;;;;
2020/02/04 01:21:22;;;;;;;12.65;3.45;;;;;;;10.77;100;93870.79;;;;
2020/02/04 01:22:25;;;;;;;12.65;3.45;;;;;;;10.77;100;93870.79;;;;
2020/02/04 01:24:12;;;;;;;12.65;3.45;;;;;;;10.77;100;93870.79;;;;
2020/02/04 01:25:26;;;;;;;12.65;3.45;;;;;;;10.77;100;93870.79;;;;
2020/02/04 01:26:44;;;;;;;12.65;3.45;;;;;;;10.77;100;93870.79;;;;
2020/02/04 01:33:32;;;;;;;16.45;4.4;;;;;;;10.98;99.66504;93831.74;;;;
2020/02/04 01:34:40;;;;;;;16.45;4.4;;;;;;;10.98;99.66504;93831.74;;;;
2020/02/04 01:35:49;;;;;;;16.45;4.4;;;;;;;10.98;99.66504;93831.74;;;;
2020/02/04 01:36:50;;;;;;;16.45;4.4;;;;;;;10.98;99.66504;93831.74;;;;
2020/02/04 01:38:03;;;;;;;16.45;4.4;;;;;;;10.98;99.66504;93831.74;;;;
2020/02/04 01:39:12;;;;;;;16.45;4.4;;;;;;;10.98;99.66504;93831.74;;;;
2020/02/04 01:40:49;;;;;;;16.45;4.4;;;;;;;10.98;99.66504;93831.74;;;;
2020/02/04 01:42:05;;;;;;;19.4;4.5;;;;;;;11.1;97.64844;93794.59;;;;
2020/02/04 01:43:08;;;;;;;19.4;4.5;;;;;;;11.1;97.64844;93794.59;;;;
2020/02/04 01:44:18;;;;;;;19.4;4.5;;;;;;;11.1;97.64844;93794.59;;;;
2020/02/04 01:45:19;;;;;;;19.4;4.5;;;;;;;11.1;97.64844;93794.59;;;;
2020/02/04 01:46:22;;;;;;;19.4;4.5;;;;;;;11.1;97.64844;93794.59;;;;
2020/02/04 01:47:23;;;;;;;19.4;4.5;;;;;;;11.1;97.64844;93794.59;;;;
2020/02/04 01:48:34;;;;;;;19.4;4.5;;;;;;;11.1;97.64844;93794.59;;;;
2020/02/04 01:49:42;;;;;;;19.4;4.5;;;;;;;11.1;97.64844;93794.59;;;;
2020/02/04 01:50:44;;;;;;;19.4;4.5;;;;;;;11.1;97.64844;93794.59;;;;
2020/02/04 01:51:52;;;;;;;16.1;4.4;;;;;;;11.21;95.99219;93775.87;;;;
2020/02/04 01:53:04;;;;;;;16.1;4.4;;;;;;;11.21;95.99219;93775.87;;;;
2020/02/04 01:54:06;;;;;;;16.1;4.4;;;;;;;11.21;95.99219;93775.87;;;;
2020/02/04 01:55:17;;;;;;;16.1;4.4;;;;;;;11.21;95.99219;93775.87;;;;
2020/02/04 01:56:18;;;;;;;16.1;4.4;;;;;;;11.21;95.99219;93775.87;;;;
2020/02/04 01:57:37;;;;;;;16.1;4.4;;;;;;;11.21;95.99219;93775.87;;;;
2020/02/04 01:58:49;;;;;;;16.1;4.4;;;;;;;11.21;95.99219;93775.87;;;;
2020/02/04 01:59:52;;;;;;;16.1;4.4;;;;;;;11.21;95.99219;93775.87;;;;
2020/02/04 02:00:52;;;;;;;16.1;4.4;;;;;;;11.21;95.99219;93775.87;;;;
2020/02/04 02:06:16;;;;;;;11.7;3.65;;;;;;;11.27;94.33203;93753.17;;;;
2020/02/04 02:07:29;;;;;;;11.7;3.65;;;;;;;11.27;94.33203;93753.17;;;;
2020/02/04 02:09:05;;;;;;;11.7;3.65;;;;;;;11.27;94.33203;93753.17;;;;
2020/02/04 02:11:00;;;;;;;11.7;3.65;;;;;;;11.27;94.33203;93753.17;;;;
2020/02/04 02:12:13;;;;;;;11.7;3.65;;;;;;;11.27;94.33203;93753.17;;;;
2020/02/04 02:13:20;;;;;;;11.7;3.65;;;;;;;11.27;94.33203;93753.17;;;;
2020/02/04 02:14:29;;;;;;;11.7;3.65;;;;;;;11.27;94.33203;93753.17;;;;
2020/02/04 02:15:49;;;;;;;11.7;3.65;;;;;;;11.27;94.33203;93753.17;;;;
2020/02/04 02:16:56;;;;;;;11.7;3.65;;;;;;;11.27;94.33203;93753.17;;;;
2020/02/04 02:17:59;;;;;;;11.7;3.65;;;;;;;11.27;94.33203;93753.17;;;;
2020/02/04 02:19:09;;;;;;;11.7;3.65;;;;;;;11.27;94.33203;93753.17;;;;
2020/02/04 02:20:18;;;;;;;11.7;3.65;;;;;;;11.27;94.33203;93753.17;;;;
2020/02/04 02:21:30;;;;;;;11.7;3.65;;;;;;;11.27;94.33203;93753.17;;;;
2020/02/04 02:22:34;;;;;;;11.7;3.65;;;;;;;11.27;94.33203;93753.17;;;;
2020/02/04 02:23:34;;;;;;;20.4;4.15;;;;;;;11.69;88.19043;93703.52;;;;
2020/02/04 02:24:38;;;;;;;20.4;4.15;;;;;;;11.69;88.19043;93703.52;;;;
2020/02/04 02:25:42;;;;;;;20.4;4.15;;;;;;;11.69;88.19043;93703.52;;;;
2020/02/04 02:26:43;;;;;;;20.4;4.15;;;;;;;11.69;88.19043;93703.52;;;;
2020/02/04 02:28:01;;;;;;;20.4;4.15;;;;;;;11.69;88.19043;93703.52;;;;
2020/02/04 02:29:22;;;;;;;20.4;4.15;;;;;;;11.69;88.19043;93703.52;;;;
2020/02/04 02:30:49;;;;;;;20.4;4.15;;;;;;;11.69;88.19043;93703.52;;;;
2020/02/04 02:31:56;;;;;;;20.4;4.15;;;;;;;11.69;88.19043;93703.52;;;;
2020/02/04 02:38:11;;;;;;;13.5;4.1;;;;;;;11.82;86.81641;93660.94;;;;
2020/02/04 02:39:14;;;;;;;13.5;4.1;;;;;;;11.82;86.81641;93660.94;;;;
2020/02/04 02:40:51;;;;;;;13.5;4.1;;;;;;;11.82;86.81641;93660.94;;;;
2020/02/04 02:42:21;;;;;;;13.5;4.1;;;;;;;11.82;86.81641;93660.94;;;;
2020/02/04 02:43:53;;;;;;;13.5;4.1;;;;;;;11.82;86.81641;93660.94;;;;
2020/02/04 02:44:55;;;;;;;15.4;3.9;;;;;;;11.9;82.57227;93657.64;;;;
2020/02/04 02:45:57;;;;;;;15.4;3.9;;;;;;;11.9;82.57227;93657.64;;;;
2020/02/04 02:47:01;;;;;;;15.4;3.9;;;;;;;11.9;82.57227;93657.64;;;;
2020/02/04 02:48:02;;;;;;;15.4;3.9;;;;;;;11.9;82.57227;93657.64;;;;
2020/02/04 02:49:09;;;;;;;15.4;3.9;;;;;;;11.9;82.57227;93657.64;;;;
2020/02/04 02:50:10;;;;;;;15.4;3.9;;;;;;;11.9;82.57227;93657.64;;;;
2020/02/04 02:51:23;;;;;;;15.4;3.9;;;;;;;11.9;82.57227;93657.64;;;;
2020/02/04 02:52:26;;;;;;;15.4;3.9;;;;;;;11.9;82.57227;93657.64;;;;
2020/02/04 02:53:27;;;;;;;15.4;3.9;;;;;;;11.9;82.57227;93657.64;;;;
2020/02/04 02:54:33;;;;;;;15.4;3.9;;;;;;;11.9;82.57227;93657.64;;;;
2020/02/04 02:55:40;;;;;;;14.9;4.3;;;;;;;12.1;80.54199;93616.48;;;;
2020/02/04 02:56:44;;;;;;;14.9;4.3;;;;;;;12.1;80.54199;93616.48;;;;
2020/02/04 02:57:46;;;;;;;14.9;4.3;;;;;;;12.1;80.54199;93616.48;;;;
2020/02/04 02:58:47;;;;;;;14.9;4.3;;;;;;;12.1;80.54199;93616.48;;;;
2020/02/04 02:59:47;;;;;;;14.9;4.3;;;;;;;12.1;80.54199;93616.48;;;;
2020/02/04 03:00:49;;;;;;;14.9;4.3;;;;;;;12.1;80.54199;93616.48;;;;
2020/02/04 03:02:01;;;;;;;14.9;4.3;;;;;;;12.1;80.54199;93616.48;;;;
2020/02/04 03:03:06;;;;;;;14.9;4.3;;;;;;;12.1;80.54199;93616.48;;;;
2020/02/04 03:04:11;;;;;;;14.9;4.3;;;;;;;12.1;80.54199;93616.48;;;;
2020/02/04 03:05:12;;;;;;;14.9;4.3;;;;;;;12.1;80.54199;93616.48;;;;
2020/02/04 03:06:16;;;;;;;17.85;4.050001;;;;;;;12.08;80.78516;93552.78;;;;
2020/02/04 03:07:37;;;;;;;17.85;4.050001;;;;;;;12.08;80.78516;93552.78;;;;
2020/02/04 03:08:58;;;;;;;17.85;4.050001;;;;;;;12.08;80.78516;93552.78;;;;
2020/02/04 03:10:07;;;;;;;17.85;4.050001;;;;;;;12.08;80.78516;93552.78;;;;
2020/02/04 03:11:11;;;;;;;17.85;4.050001;;;;;;;12.08;80.78516;93552.78;;;;
2020/02/04 03:12:11;;;;;;;17.85;4.050001;;;;;;;12.08;80.78516;93552.78;;;;
2020/02/04 03:13:13;;;;;;;17.85;4.050001;;;;;;;12.08;80.78516;93552.78;;;;
2020/02/04 03:14:16;;;;;;;17.85;4.050001;;;;;;;12.08;80.78516;93552.78;;;;
2020/02/04 03:15:17;;;;;;;17.85;4.050001;;;;;;;12.08;80.78516;93552.78;;;;
2020/02/04 03:21:46;;;;;;;14.75;4.25;;;;;;;12.09;81.18457;93510.16;;;;
2020/02/04 03:22:58;;;;;;;14.75;4.25;;;;;;;12.09;81.18457;93510.16;;;;
2020/02/04 03:23:59;;;;;;;14.75;4.25;;;;;;;12.09;81.18457;93510.16;;;;
2020/02/04 03:25:03;;;;;;;14.75;4.25;;;;;;;12.09;81.18457;93510.16;;;;
2020/02/04 03:26:05;;;;;;;14.75;4.25;;;;;;;12.09;81.18457;93510.16;;;;
2020/02/04 03:27:07;;;;;;;14.15;3.649999;;;;;;;11.96;82.21973;93484.36;;;;
2020/02/04 03:28:08;;;;;;;14.15;3.649999;;;;;;;11.96;82.21973;93484.36;;;;
2020/02/04 03:29:19;;;;;;;14.15;3.649999;;;;;;;11.96;82.21973;93484.36;;;;
2020/02/04 03:30:21;;;;;;;14.15;3.649999;;;;;;;11.96;82.21973;93484.36;;;;
2020/02/04 03:31:39;;;;;;;14.15;3.649999;;;;;;;11.96;82.21973;93484.36;;;;
2020/02/04 03:32:49;;;;;;;14.15;3.649999;;;;;;;11.96;82.21973;93484.36;;;;
2020/02/04 03:33:51;;;;;;;14.15;3.649999;;;;;;;11.96;82.21973;93484.36;;;;
2020/02/04 03:34:54;;;;;;;14.15;3.649999;;;;;;;11.96;82.21973;93484.36;;;;
2020/02/04 03:35:55;;;;;;;14.15;3.649999;;;;;;;11.96;82.21973;93484.36;;;;
2020/02/04 03:36:57;;;;;;;14.15;3.649999;;;;;;;11.96;82.21973;93484.36;;;;
2020/02/04 03:37:57;;;;;;;17.35;3.95;;;;;;;11.9;82.1123;93491.31;;;;
2020/02/04 03:39:05;;;;;;;17.35;3.95;;;;;;;11.9;82.1123;93491.31;;;;
2020/02/04 03:40:38;;;;;;;17.35;3.95;;;;;;;11.9;82.1123;93491.31;;;;
2020/02/04 03:41:43;;;;;;;17.35;3.95;;;;;;;11.9;82.1123;93491.31;;;;
2020/02/04 03:42:43;;;;;;;17.35;3.95;;;;;;;11.9;82.1123;93491.31;;;;
2020/02/04 03:43:43;;;;;;;17.35;3.95;;;;;;;11.9;82.1123;93491.31;;;;
2020/02/04 03:44:47;;;;;;;17.35;3.95;;;;;;;11.9;82.1123;93491.31;;;;
2020/02/04 03:45:47;;;;;;;17.35;3.95;;;;;;;11.9;82.1123;93491.31;;;;
2020/02/04 03:46:48;;;;;;;17.35;3.95;;;;;;;11.9;82.1123;93491.31;;;;
2020/02/04 03:47:49;;;;;;;17.35;3.95;;;;;;;11.9;82.1123;93491.31;;;;
2020/02/04 03:48:51;;;;;;;15.8;3.85;;;;;;;11.72;83.04199;93531.25;;;;
2020/02/04 03:49:52;;;;;;;15.8;3.85;;;;;;;11.72;83.04199;93531.25;;;;
2020/02/04 03:50:53;;;;;;;15.8;3.85;;;;;;;11.72;83.04199;93531.25;;;;
2020/02/04 03:51:53;;;;;;;15.8;3.85;;;;;;;11.72;83.04199;93531.25;;;;
2020/02/04 03:52:55;;;;;;;15.8;3.85;;;;;;;11.72;83.04199;93531.25;;;;
2020/02/04 03:54:46;;;;;;;15.8;3.85;;;;;;;11.72;83.04199;93531.25;;;;
2020/02/04 03:55:49;;;;;;;15.8;3.85;;;;;;;11.72;83.04199;93531.25;;;;
2020/02/04 03:57:11;;;;;;;15.8;3.85;;;;;;;11.72;83.04199;93531.25;;;;
2020/02/04 03:58:19;;;;;;;15.8;3.85;;;;;;;11.72;83.04199;93531.25;;;;
2020/02/04 03:59:24;;;;;;;14.5;3.9;;;;;;;11.59;82.94434;93547.56;;;;
2020/02/04 04:00:26;;;;;;;14.5;3.9;;;;;;;11.59;82.94434;93547.56;;;;
2020/02/04 04:01:28;;;;;;;14.5;3.9;;;;;;;11.59;82.94434;93547.56;;;;
2020/02/04 04:02:29;;;;;;;14.5;3.9;;;;;;;11.59;82.94434;93547.56;;;;
2020/02/04 04:03:37;;;;;;;14.5;3.9;;;;;;;11.59;82.94434;93547.56;;;;
2020/02/04 04:04:38;;;;;;;14.5;3.9;;;;;;;11.59;82.94434;93547.56;;;;
2020/02/04 04:05:50;;;;;;;14.5;3.9;;;;;;;11.59;82.94434;93547.56;;;;
2020/02/04 04:06:50;;;;;;;14.5;3.9;;;;;;;11.59;82.94434;93547.56;;;;
2020/02/04 04:07:51;;;;;;;14.5;3.9;;;;;;;11.59;82.94434;93547.56;;;;
2020/02/04 04:08:53;;;;;;;14.5;3.9;;;;;;;11.59;82.94434;93547.56;;;;
2020/02/04 04:09:55;;;;;;;17.25;3.75;;;;;;;11.22;85.81934;93607.31;;;;
2020/02/04 04:11:06;;;;;;;17.25;3.75;;;;;;;11.22;85.81934;93607.31;;;;
2020/02/04 04:12:08;;;;;;;17.25;3.75;;;;;;;11.22;85.81934;93607.31;;;;
2020/02/04 04:13:09;;;;;;;17.25;3.75;;;;;;;11.22;85.81934;93607.31;;;;
2020/02/04 04:14:09;;;;;;;17.25;3.75;;;;;;;11.22;85.81934;93607.31;;;;
2020/02/04 04:15:10;;;;;;;17.25;3.75;;;;;;;11.22;85.81934;93607.31;;;;
2020/02/04 04:16:11;;;;;;;17.25;3.75;;;;;;;11.22;85.81934;93607.31;;;;
2020/02/04 04:17:11;;;;;;;17.25;3.75;;;;;;;11.22;85.81934;93607.31;;;;
2020/02/04 04:18:27;;;;;;;17.25;3.75;;;;;;;11.22;85.81934;93607.31;;;;
2020/02/04 04:19:33;;;;;;;17.25;3.75;;;;;;;11.22;85.81934;93607.31;;;;
2020/02/04 04:20:34;;;;;;;12.05;3.55;;;;;;;10.4;91.21875;93660.61;;;;
2020/02/04 04:21:38;;;;;;;12.05;3.55;;;;;;;10.4;91.21875;93660.61;;;;
2020/02/04 04:22:38;;;;;;;12.05;3.55;;;;;;;10.4;91.21875;93660.61;;;;
2020/02/04 04:23:40;;;;;;;12.05;3.55;;;;;;;10.4;91.21875;93660.61;;;;
2020/02/04 04:24:41;;;;;;;12.05;3.55;;;;;;;10.4;91.21875;93660.61;;;;
2020/02/04 04:25:42;;;;;;;12.05;3.55;;;;;;;10.4;91.21875;93660.61;;;;
2020/02/04 04:26:45;;;;;;;12.05;3.55;;;;;;;10.4;91.21875;93660.61;;;;
2020/02/04 04:27:45;;;;;;;12.05;3.55;;;;;;;10.4;91.21875;93660.61;;;;
2020/02/04 04:28:48;;;;;;;12.05;3.55;;;;;;;10.4;91.21875;93660.61;;;;
2020/02/04 04:29:48;;;;;;;12.05;3.55;;;;;;;10.4;91.21875;93660.61;;;;
2020/02/04 04:30:53;;;;;;;5.45;1.85;;;;;;;9.52;96.10938;93720.89;;;;
2020/02/04 04:31:54;;;;;;;5.45;1.85;;;;;;;9.52;96.10938;93720.89;;;;
2020/02/04 04:33:32;;;;;;;5.45;1.85;;;;;;;9.52;96.10938;93720.89;;;;
2020/02/04 04:34:40;;;;;;;5.45;1.85;;;;;;;9.52;96.10938;93720.89;;;;
2020/02/04 04:35:44;;;;;;;5.45;1.85;;;;;;;9.52;96.10938;93720.89;;;;
2020/02/04 04:36:53;;;;;;;5.45;1.85;;;;;;;9.52;96.10938;93720.89;;;;
2020/02/04 04:37:53;;;;;;;5.45;1.85;;;;;;;9.52;96.10938;93720.89;;;;
2020/02/04 04:38:54;;;;;;;5.45;1.85;;;;;;;9.52;96.10938;93720.89;;;;
2020/02/04 04:39:54;;;;;;;5.45;1.85;;;;;;;9.52;96.10938;93720.89;;;;
2020/02/04 04:40:55;;;;;;;5.45;1.85;;;;;;;9.52;96.10938;93720.89;;;;
2020/02/04 04:41:55;;;;;;;1.6;0.9;;;;;;;8.35;96.25391;93890.55;;;;
2020/02/04 04:42:56;;;;;;;1.6;0.9;;;;;;;8.35;96.25391;93890.55;;;;
2020/02/04 04:43:57;;;;;;;1.6;0.9;;;;;;;8.35;96.25391;93890.55;;;;
2020/02/04 04:44:58;;;;;;;1.6;0.9;;;;;;;8.35;96.25391;93890.55;;;;
2020/02/04 04:45:58;;;;;;;1.6;0.9;;;;;;;8.35;96.25391;93890.55;;;;
2020/02/04 04:47:00;;;;;;;1.6;0.9;;;;;;;8.35;96.25391;93890.55;;;;
2020/02/04 04:48:01;;;;;;;1.6;0.9;;;;;;;8.35;96.25391;93890.55;;;;
2020/02/04 04:49:02;;;;;;;1.6;0.9;;;;;;;8.35;96.25391;93890.55;;;;
2020/02/04 04:50:03;;;;;;;1.6;0.9;;;;;;;8.35;96.25391;93890.55;;;;
2020/02/04 04:51:04;;;;;;;1.6;0.9;;;;;;;8.35;96.25391;93890.55;;;;
2020/02/04 04:52:07;;;;;;;1.2;0.8;;;;;;;7.14;97.45313;93935.77;;;;
2020/02/04 04:53:07;;;;;;;1.2;0.8;;;;;;;7.14;97.45313;93935.77;;;;
2020/02/04 04:54:09;;;;;;;1.2;0.8;;;;;;;7.14;97.45313;93935.77;;;;
2020/02/04 04:55:09;;;;;;;1.2;0.8;;;;;;;7.14;97.45313;93935.77;;;;
2020/02/04 04:56:10;;;;;;;1.2;0.8;;;;;;;7.14;97.45313;93935.77;;;;
2020/02/04 04:57:12;;;;;;;1.2;0.8;;;;;;;7.14;97.45313;93935.77;;;;
2020/02/04 04:58:13;;;;;;;1.2;0.8;;;;;;;7.14;97.45313;93935.77;;;;
2020/02/04 04:59:13;;;;;;;1.2;0.8;;;;;;;7.14;97.45313;93935.77;;;;
2020/02/04 05:00:13;;;;;;;1.2;0.8;;;;;;;7.14;97.45313;93935.77;;;;
2020/02/04 05:01:23;;;;;;;1.2;0.8;;;;;;;7.14;97.45313;93935.77;;;;
2020/02/04 05:02:26;;;;;;;0.7;0.7;;;;;;;6.32;98.91113;94042.42;;;;
2020/02/04 05:03:26;;;;;;;0.7;0.7;;;;;;;6.32;98.91113;94042.42;;;;
2020/02/04 05:04:27;;;;;;;0.7;0.7;;;;;;;6.32;98.91113;94042.42;;;;
2020/02/04 05:05:27;;;;;;;0.7;0.7;;;;;;;6.32;98.91113;94042.42;;;;
2020/02/04 05:06:28;;;;;;;0.7;0.7;;;;;;;6.32;98.91113;94042.42;;;;
2020/02/04 05:07:29;;;;;;;0.7;0.7;;;;;;;6.32;98.91113;94042.42;;;;
2020/02/04 05:08:29;;;;;;;0.7;0.7;;;;;;;6.32;98.91113;94042.42;;;;
2020/02/04 05:09:30;;;;;;;0.7;0.7;;;;;;;6.32;98.91113;94042.42;;;;
2020/02/04 05:10:32;;;;;;;0.7;0.7;;;;;;;6.32;98.91113;94042.42;;;;
2020/02/04 05:11:37;;;;;;;0.7;0.7;;;;;;;6.32;98.91113;94042.42;;;;
2020/02/04 05:12:42;;;;;;;0.7;0.7;;;;;;;6.32;98.91113;94042.42;;;;
2020/02/04 05:13:54;;;;;;;0.5;0.5;;;;;;;5.67;99.87598;94122.34;;;;
2020/02/04 05:15:05;;;;;;;0.5;0.5;;;;;;;5.67;99.87598;94122.34;;;;
2020/02/04 05:16:27;;;;;;;0.5;0.5;;;;;;;5.67;99.87598;94122.34;;;;
2020/02/04 05:17:34;;;;;;;0.5;0.5;;;;;;;5.67;99.87598;94122.34;;;;
2020/02/04 05:18:34;;;;;;;0.5;0.5;;;;;;;5.67;99.87598;94122.34;;;;
2020/02/04 05:19:38;;;;;;;0.5;0.5;;;;;;;5.67;99.87598;94122.34;;;;
2020/02/04 05:20:39;;;;;;;0.5;0.5;;;;;;;5.67;99.87598;94122.34;;;;
2020/02/04 05:21:39;;;;;;;0.5;0.5;;;;;;;5.67;99.87598;94122.34;;;;
2020/02/04 05:22:40;;;;;;;0.5;0.5;;;;;;;5.67;99.87598;94122.34;;;;
2020/02/04 05:23:40;;;;;;;0.7;0.7;;;;;;;5.12;100;94195.04;;;;
2020/02/04 05:24:41;;;;;;;0.7;0.7;;;;;;;5.12;100;94195.04;;;;
2020/02/04 05:25:41;;;;;;;0.7;0.7;;;;;;;5.12;100;94195.04;;;;
2020/02/04 05:26:41;;;;;;;0.7;0.7;;;;;;;5.12;100;94195.04;;;;
2020/02/04 05:27:42;;;;;;;0.7;0.7;;;;;;;5.12;100;94195.04;;;;
2020/02/04 05:28:42;;;;;;;0.7;0.7;;;;;;;5.12;100;94195.04;;;;
2020/02/04 05:29:43;;;;;;;0.7;0.7;;;;;;;5.12;100;94195.04;;;;
2020/02/04 05:30:43;;;;;;;0.7;0.7;;;;;;;5.12;100;94195.04;;;;
2020/02/04 05:31:44;;;;;;;0.7;0.7;;;;;;;5.12;100;94195.04;;;;
2020/02/04 05:32:44;;;;;;;0.7;0.7;;;;;;;5.12;100;94195.04;;;;
2020/02/04 05:33:45;;;;;;;0.7;0.7;;;;;;;5.12;100;94195.04;;;;
2020/02/04 05:34:45;;;;;;;0.9;0.9;;;;;;;4.74;100;94301.92;;;;
2020/02/04 05:35:45;;;;;;;0.9;0.9;;;;;;;4.74;100;94301.92;;;;
2020/02/04 05:36:46;;;;;;;0.9;0.9;;;;;;;4.74;100;94301.92;;;;
2020/02/04 05:37:46;;;;;;;0.9;0.9;;;;;;;4.74;100;94301.92;;;;
2020/02/04 05:38:47;;;;;;;0.9;0.9;;;;;;;4.74;100;94301.92;;;;
2020/02/04 05:39:47;;;;;;;0.9;0.9;;;;;;;4.74;100;94301.92;;;;
2020/02/04 05:40:48;;;;;;;0.9;0.9;;;;;;;4.74;100;94301.92;;;;
2020/02/04 05:41:48;;;;;;;0.9;0.9;;;;;;;4.74;100;94301.92;;;;
2020/02/04 05:42:49;;;;;;;0.9;0.9;;;;;;;4.74;100;94301.92;;;;
2020/02/04 05:43:49;;;;;;;0.9;0.9;;;;;;;4.74;100;94301.92;;;;
2020/02/04 05:44:50;;;;;;;0.7;0.7;;;;;;;4.53;100;94435.11;;;;
2020/02/04 05:45:50;;;;;;;0.7;0.7;;;;;;;4.53;100;94435.11;;;;
2020/02/04 05:46:50;;;;;;;0.7;0.7;;;;;;;4.53;100;94435.11;;;;
2020/02/04 05:47:51;;;;;;;0.7;0.7;;;;;;;4.53;100;94435.11;;;;
2020/02/04 05:48:51;;;;;;;0.7;0.7;;;;;;;4.53;100;94435.11;;;;
2020/02/04 05:49:52;;;;;;;0.7;0.7;;;;;;;4.53;100;94435.11;;;;
2020/02/04 05:50:52;;;;;;;0.7;0.7;;;;;;;4.53;100;94435.11;;;;
2020/02/04 05:51:53;;;;;;;0.7;0.7;;;;;;;4.53;100;94435.11;;;;
2020/02/04 05:52:53;;;;;;;0.7;0.7;;;;;;;4.53;100;94435.11;;;;
2020/02/04 05:53:54;;;;;;;0.7;0.7;;;;;;;4.53;100;94435.11;;;;
2020/02/04 05:54:54;;;;;;;0.7;0.7;;;;;;;4.53;100;94435.11;;;;
2020/02/04 05:55:54;;;;;;;0.65;0.65;;;;;;;4.24;100;94519;;;;
2020/02/04 05:56:55;;;;;;;0.65;0.65;;;;;;;4.24;100;94519;;;;
2020/02/04 05:57:55;;;;;;;0.65;0.65;;;;;;;4.24;100;94519;;;;
2020/02/04 05:58:56;;;;;;;0.65;0.65;;;;;;;4.24;100;94519;;;;
2020/02/04 05:59:56;;;;;;;0.65;0.65;;;;;;;4.24;100;94519;;;;
2020/02/04 06:00:57;;;;;;;0.65;0.65;;;;;;;4.24;100;94519;;;;
2020/02/04 06:01:57;;;;;;;0.65;0.65;;;;;;;4.24;100;94519;;;;
2020/02/04 06:02:58;;;;;;;0.65;0.65;;;;;;;4.24;100;94519;;;;
2020/02/04 06:03:58;;;;;;;0.65;0.65;;;;;;;4.24;100;94519;;;;
2020/02/04 06:04:59;;;;;;;0.65;0.65;;;;;;;4.24;100;94519;;;;
2020/02/04 06:05:59;;;;;;;0.65;0.65;;;;;;;4.24;100;94519;;;;
2020/02/04 06:06:59;;;;;;;0.7;0.7;;;;;;;4.11;100;94562.32;;;;
2020/02/04 06:08:00;;;;;;;0.7;0.7;;;;;;;4.11;100;94562.32;;;;
2020/02/04 06:09:00;;;;;;;0.7;0.7;;;;;;;4.11;100;94562.32;;;;
2020/02/04 06:10:01;;;;;;;0.7;0.7;;;;;;;4.11;100;94562.32;;;;
2020/02/04 06:11:01;;;;;;;0.7;0.7;;;;;;;4.11;100;94562.32;;;;
2020/02/04 06:17:07;;;;;;;0.8;0.8;;;;;;;3.96;100;94620.43;;;;
2020/02/04 06:18:08;;;;;;;0.8;0.8;;;;;;;3.96;100;94620.43;;;;
2020/02/04 06:19:09;;;;;;;0.8;0.8;;;;;;;3.96;100;94620.43;;;;
2020/02/04 06:21:21;;;;;;;0.8;0.8;;;;;;;3.96;100;94620.43;;;;
2020/02/04 06:22:36;;;;;;;0.8;0.8;;;;;;;3.96;100;94620.43;;;;
2020/02/04 06:23:41;;;;;;;0.8;0.8;;;;;;;3.96;100;94620.43;;;;
2020/02/04 06:24:42;;;;;;;0.8;0.8;;;;;;;3.96;100;94620.43;;;;
2020/02/04 06:25:42;;;;;;;0.8;0.8;;;;;;;3.96;100;94620.43;;;;
2020/02/04 06:26:43;;;;;;;0.8;0.8;;;;;;;3.96;100;94620.43;;;;
2020/02/04 06:27:43;;;;;;;0.9;0.9;;;;;;;3.92;100;94637.1;;;;
2020/02/04 06:28:43;;;;;;;0.9;0.9;;;;;;;3.92;100;94637.1;;;;
2020/02/04 06:29:44;;;;;;;0.9;0.9;;;;;;;3.92;100;94637.1;;;;
2020/02/04 06:30:44;;;;;;;0.9;0.9;;;;;;;3.92;100;94637.1;;;;
2020/02/04 06:31:45;;;;;;;0.9;0.9;;;;;;;3.92;100;94637.1;;;;
2020/02/04 06:32:45;;;;;;;0.9;0.9;;;;;;;3.92;100;94637.1;;;;
2020/02/04 06:33:46;;;;;;;0.9;0.9;;;;;;;3.92;100;94637.1;;;;
2020/02/04 06:34:46;;;;;;;0.9;0.9;;;;;;;3.92;100;94637.1;;;;
2020/02/04 06:35:47;;;;;;;0.9;0.9;;;;;;;3.92;100;94637.1;;;;
2020/02/04 06:36:47;;;;;;;0.9;0.9;;;;;;;3.92;100;94637.1;;;;
2020/02/04 06:37:48;;;;;;;0.9;0.9;;;;;;;3.85;100;94659.38;;;;
2020/02/04 06:38:48;;;;;;;0.9;0.9;;;;;;;3.85;100;94659.38;;;;
2020/02/04 06:39:48;;;;;;;0.9;0.9;;;;;;;3.85;100;94659.38;;;;
2020/02/04 06:40:49;;;;;;;0.9;0.9;;;;;;;3.85;100;94659.38;;;;
2020/02/04 06:41:49;;;;;;;0.9;0.9;;;;;;;3.85;100;94659.38;;;;
2020/02/04 06:42:50;;;;;;;0.9;0.9;;;;;;;3.85;100;94659.38;;;;
2020/02/04 06:43:50;;;;;;;0.9;0.9;;;;;;;3.85;100;94659.38;;;;
2020/02/04 06:44:51;;;;;;;0.9;0.9;;;;;;;3.85;100;94659.38;;;;
2020/02/04 06:45:51;;;;;;;0.9;0.9;;;;;;;3.85;100;94659.38;;;;
2020/02/04 06:46:52;;;;;;;0.9;0.9;;;;;;;3.85;100;94659.38;;;;
2020/02/04 06:47:52;;;;;;;0.9;0.9;;;;;;;3.85;100;94659.38;;;;
2020/02/04 06:48:52;;;;;;;1.7;1;;;;;;;3.85;100;94676.36;;;;
2020/02/04 06:49:53;;;;;;;1.7;1;;;;;;;3.85;100;94676.36;;;;
2020/02/04 06:50:53;;;;;;;1.7;1;;;;;;;3.85;100;94676.36;;;;